sensor_id;sensor_type;location;lat;lon;timestamp;P1;durP1;ratioP1;P2;durP2;ratioP2
79212;SDS011;68639;52.380;9.822;2024-02-04T00:01:23;13.87;;;5.17;;
79212;SDS011;68639;52.380;9.822;2024-02-04T00:03:49;15.07;;;5.30;;
79212;SDS011;68639;52.380;9.822;2024-02-04T00:06:14;10.20;;;5.03;;
79212;SDS011;68639;52.380;9.822;2024-02-04T00:08:39;15.60;;;5.50;;
79212;SDS011;68639;52.380;9.822;2024-02-04T00:11:04;10.73;;;4.93;;
79212;SDS011;68639;52.380;9.822;2024-02-04T00:13:32;9.77;;;5.07;;
79212;SDS011;68639;52.380;9.822;2024-02-04T00:15:57;11.50;;;5.37;;
79212;SDS011;68639;52.380;9.822;2024-02-04T00:18:23;10.43;;;5.20;;
79212;SDS011;68639;52.380;9.822;2024-02-04T00:20:49;11.03;;;5.23;;
79212;SDS011;68639;52.380;9.822;2024-02-04T00:23:14;11.77;;;5.80;;
79212;SDS011;68639;52.380;9.822;2024-02-04T00:25:39;11.93;;;5.50;;
79212;SDS011;68639;52.380;9.822;2024-02-04T00:28:06;11.57;;;5.90;;
79212;SDS011;68639;52.380;9.822;2024-02-04T00:30:31;13.70;;;6.00;;
79212;SDS011;68639;52.380;9.822;2024-02-04T00:32:56;14.93;;;7.20;;
79212;SDS011;68639;52.380;9.822;2024-02-04T00:35:27;16.10;;;7.10;;
79212;SDS011;68639;52.380;9.822;2024-02-04T00:37:52;11.60;;;5.47;;
79212;SDS011;68639;52.380;9.822;2024-02-04T00:40:18;18.67;;;8.03;;
79212;SDS011;68639;52.380;9.822;2024-02-04T00:42:43;13.50;;;6.40;;
79212;SDS011;68639;52.380;9.822;2024-02-04T00:45:08;17.13;;;8.53;;
79212;SDS011;68639;52.380;9.822;2024-02-04T00:47:33;16.10;;;7.80;;
79212;SDS011;68639;52.380;9.822;2024-02-04T00:49:58;17.27;;;7.13;;
79212;SDS011;68639;52.380;9.822;2024-02-04T00:52:24;18.27;;;8.40;;
79212;SDS011;68639;52.380;9.822;2024-02-04T00:54:49;19.20;;;8.67;;
79212;SDS011;68639;52.380;9.822;2024-02-04T00:57:14;19.93;;;9.50;;
79212;SDS011;68639;52.380;9.822;2024-02-04T00:59:39;14.97;;;8.07;;
79212;SDS011;68639;52.380;9.822;2024-02-04T01:02:04;17.20;;;8.10;;
79212;SDS011;68639;52.380;9.822;2024-02-04T01:04:30;14.03;;;7.33;;
79212;SDS011;68639;52.380;9.822;2024-02-04T01:06:55;18.80;;;8.67;;
79212;SDS011;68639;52.380;9.822;2024-02-04T01:09:20;14.70;;;7.70;;
79212;SDS011;68639;52.380;9.822;2024-02-04T01:11:45;18.83;;;8.63;;
79212;SDS011;68639;52.380;9.822;2024-02-04T01:14:10;15.57;;;8.30;;
79212;SDS011;68639;52.380;9.822;2024-02-04T01:16:36;17.97;;;9.03;;
79212;SDS011;68639;52.380;9.822;2024-02-04T01:19:01;16.23;;;9.20;;
79212;SDS011;68639;52.380;9.822;2024-02-04T01:21:26;16.03;;;9.73;;
79212;SDS011;68639;52.380;9.822;2024-02-04T01:23:52;18.83;;;9.00;;
79212;SDS011;68639;52.380;9.822;2024-02-04T01:26:17;16.30;;;8.30;;
79212;SDS011;68639;52.380;9.822;2024-02-04T01:28:42;18.57;;;8.43;;
79212;SDS011;68639;52.380;9.822;2024-02-04T01:31:07;14.40;;;8.00;;
79212;SDS011;68639;52.380;9.822;2024-02-04T01:33:33;15.37;;;7.87;;
79212;SDS011;68639;52.380;9.822;2024-02-04T01:35:58;14.40;;;7.87;;
79212;SDS011;68639;52.380;9.822;2024-02-04T01:38:23;18.97;;;7.83;;
79212;SDS011;68639;52.380;9.822;2024-02-04T01:40:48;16.07;;;8.00;;
79212;SDS011;68639;52.380;9.822;2024-02-04T01:43:16;15.10;;;8.03;;
79212;SDS011;68639;52.380;9.822;2024-02-04T01:45:41;15.43;;;8.33;;
79212;SDS011;68639;52.380;9.822;2024-02-04T01:48:06;16.53;;;8.60;;
79212;SDS011;68639;52.380;9.822;2024-02-04T01:50:32;15.07;;;9.20;;
79212;SDS011;68639;52.380;9.822;2024-02-04T01:52:57;17.70;;;10.10;;
79212;SDS011;68639;52.380;9.822;2024-02-04T01:55:22;17.73;;;9.67;;
79212;SDS011;68639;52.380;9.822;2024-02-04T01:57:48;22.43;;;11.40;;
79212;SDS011;68639;52.380;9.822;2024-02-04T02:00:13;24.60;;;10.90;;
79212;SDS011;68639;52.380;9.822;2024-02-04T02:02:39;18.20;;;10.57;;
79212;SDS011;68639;52.380;9.822;2024-02-04T02:05:05;22.67;;;11.33;;
79212;SDS011;68639;52.380;9.822;2024-02-04T02:07:30;23.43;;;11.27;;
79212;SDS011;68639;52.380;9.822;2024-02-04T02:09:56;20.07;;;10.93;;
79212;SDS011;68639;52.380;9.822;2024-02-04T02:12:25;26.00;;;12.83;;
79212;SDS011;68639;52.380;9.822;2024-02-04T02:14:54;23.80;;;12.50;;
79212;SDS011;68639;52.380;9.822;2024-02-04T02:17:23;21.97;;;11.93;;
79212;SDS011;68639;52.380;9.822;2024-02-04T02:20:03;23.70;;;12.53;;
79212;SDS011;68639;52.380;9.822;2024-02-04T02:22:45;28.37;;;11.63;;
79212;SDS011;68639;52.380;9.822;2024-02-04T02:25:12;25.33;;;13.43;;
79212;SDS011;68639;52.380;9.822;2024-02-04T02:27:50;27.43;;;13.07;;
79212;SDS011;68639;52.380;9.822;2024-02-04T02:30:16;23.40;;;14.03;;
79212;SDS011;68639;52.380;9.822;2024-02-04T02:32:42;21.77;;;13.03;;
79212;SDS011;68639;52.380;9.822;2024-02-04T02:35:07;24.60;;;13.53;;
79212;SDS011;68639;52.380;9.822;2024-02-04T02:37:34;21.43;;;12.40;;
79212;SDS011;68639;52.380;9.822;2024-02-04T02:40:05;21.30;;;13.40;;
79212;SDS011;68639;52.380;9.822;2024-02-04T02:42:30;19.10;;;11.43;;
79212;SDS011;68639;52.380;9.822;2024-02-04T02:44:56;23.83;;;12.10;;
79212;SDS011;68639;52.380;9.822;2024-02-04T02:47:22;19.80;;;11.43;;
79212;SDS011;68639;52.380;9.822;2024-02-04T02:49:48;21.50;;;11.33;;
79212;SDS011;68639;52.380;9.822;2024-02-04T02:52:15;20.87;;;11.03;;
79212;SDS011;68639;52.380;9.822;2024-02-04T02:54:40;23.17;;;11.17;;
79212;SDS011;68639;52.380;9.822;2024-02-04T02:57:05;19.77;;;11.10;;
79212;SDS011;68639;52.380;9.822;2024-02-04T02:59:31;19.30;;;10.77;;
79212;SDS011;68639;52.380;9.822;2024-02-04T03:01:56;19.60;;;10.50;;
79212;SDS011;68639;52.380;9.822;2024-02-04T03:04:21;22.83;;;9.77;;
79212;SDS011;68639;52.380;9.822;2024-02-04T03:06:46;24.77;;;10.50;;
79212;SDS011;68639;52.380;9.822;2024-02-04T03:09:12;17.47;;;10.40;;
79212;SDS011;68639;52.380;9.822;2024-02-04T03:11:38;17.47;;;10.17;;
79212;SDS011;68639;52.380;9.822;2024-02-04T03:14:03;18.67;;;11.00;;
79212;SDS011;68639;52.380;9.822;2024-02-04T03:16:28;21.73;;;10.87;;
79212;SDS011;68639;52.380;9.822;2024-02-04T03:18:53;22.03;;;11.23;;
79212;SDS011;68639;52.380;9.822;2024-02-04T03:21:18;21.13;;;11.40;;
79212;SDS011;68639;52.380;9.822;2024-02-04T03:23:44;22.93;;;11.60;;
79212;SDS011;68639;52.380;9.822;2024-02-04T03:26:09;25.20;;;12.13;;
79212;SDS011;68639;52.380;9.822;2024-02-04T03:28:35;21.83;;;11.67;;
79212;SDS011;68639;52.380;9.822;2024-02-04T03:31:00;22.77;;;11.17;;
79212;SDS011;68639;52.380;9.822;2024-02-04T03:33:25;20.23;;;10.67;;
79212;SDS011;68639;52.380;9.822;2024-02-04T03:35:50;21.67;;;11.40;;
79212;SDS011;68639;52.380;9.822;2024-02-04T03:38:16;23.03;;;11.23;;
79212;SDS011;68639;52.380;9.822;2024-02-04T03:40:41;20.17;;;12.03;;
79212;SDS011;68639;52.380;9.822;2024-02-04T03:43:08;23.17;;;12.07;;
79212;SDS011;68639;52.380;9.822;2024-02-04T03:45:33;20.17;;;11.07;;
79212;SDS011;68639;52.380;9.822;2024-02-04T03:47:58;23.07;;;10.60;;
79212;SDS011;68639;52.380;9.822;2024-02-04T03:50:23;28.70;;;12.77;;
79212;SDS011;68639;52.380;9.822;2024-02-04T03:52:48;20.23;;;10.77;;
79212;SDS011;68639;52.380;9.822;2024-02-04T03:55:13;23.07;;;10.27;;
79212;SDS011;68639;52.380;9.822;2024-02-04T03:57:39;21.10;;;11.00;;
79212;SDS011;68639;52.380;9.822;2024-02-04T04:00:05;18.23;;;9.97;;
79212;SDS011;68639;52.380;9.822;2024-02-04T04:02:30;21.37;;;9.97;;
79212;SDS011;68639;52.380;9.822;2024-02-04T04:04:55;23.83;;;11.03;;
79212;SDS011;68639;52.380;9.822;2024-02-04T04:07:20;22.23;;;11.00;;
79212;SDS011;68639;52.380;9.822;2024-02-04T04:09:45;27.90;;;11.03;;
79212;SDS011;68639;52.380;9.822;2024-02-04T04:12:11;20.77;;;10.83;;
79212;SDS011;68639;52.380;9.822;2024-02-04T04:14:36;19.83;;;11.17;;
79212;SDS011;68639;52.380;9.822;2024-02-04T04:17:01;23.07;;;10.50;;
79212;SDS011;68639;52.380;9.822;2024-02-04T04:19:26;19.23;;;10.10;;
79212;SDS011;68639;52.380;9.822;2024-02-04T04:21:51;19.50;;;9.87;;
79212;SDS011;68639;52.380;9.822;2024-02-04T04:24:17;20.07;;;10.30;;
79212;SDS011;68639;52.380;9.822;2024-02-04T04:26:47;25.33;;;10.40;;
79212;SDS011;68639;52.380;9.822;2024-02-04T04:29:12;22.07;;;11.03;;
79212;SDS011;68639;52.380;9.822;2024-02-04T04:31:37;23.80;;;10.60;;
79212;SDS011;68639;52.380;9.822;2024-02-04T04:34:02;21.90;;;10.50;;
79212;SDS011;68639;52.380;9.822;2024-02-04T04:36:27;22.93;;;9.27;;
79212;SDS011;68639;52.380;9.822;2024-02-04T04:38:52;17.93;;;9.53;;
79212;SDS011;68639;52.380;9.822;2024-02-04T04:41:18;22.33;;;11.37;;
79212;SDS011;68639;52.380;9.822;2024-02-04T04:43:43;23.80;;;10.83;;
79212;SDS011;68639;52.380;9.822;2024-02-04T04:46:08;20.47;;;10.07;;
79212;SDS011;68639;52.380;9.822;2024-02-04T04:48:33;20.53;;;10.83;;
79212;SDS011;68639;52.380;9.822;2024-02-04T04:50:58;21.73;;;10.30;;
79212;SDS011;68639;52.380;9.822;2024-02-04T04:53:24;28.47;;;11.17;;
79212;SDS011;68639;52.380;9.822;2024-02-04T04:55:49;23.90;;;12.07;;
79212;SDS011;68639;52.380;9.822;2024-02-04T04:58:14;26.77;;;10.53;;
79212;SDS011;68639;52.380;9.822;2024-02-04T05:00:39;23.27;;;10.43;;
79212;SDS011;68639;52.380;9.822;2024-02-04T05:03:04;25.70;;;11.80;;
79212;SDS011;68639;52.380;9.822;2024-02-04T05:05:29;23.10;;;11.87;;
79212;SDS011;68639;52.380;9.822;2024-02-04T05:07:55;24.07;;;10.93;;
79212;SDS011;68639;52.380;9.822;2024-02-04T05:10:20;20.87;;;11.60;;
79212;SDS011;68639;52.380;9.822;2024-02-04T05:12:45;22.03;;;11.77;;
79212;SDS011;68639;52.380;9.822;2024-02-04T05:15:10;21.73;;;11.73;;
79212;SDS011;68639;52.380;9.822;2024-02-04T05:17:35;19.17;;;11.33;;
79212;SDS011;68639;52.380;9.822;2024-02-04T05:20:01;24.33;;;12.80;;
79212;SDS011;68639;52.380;9.822;2024-02-04T05:22:28;21.33;;;11.20;;
79212;SDS011;68639;52.380;9.822;2024-02-04T05:24:53;23.23;;;10.90;;
79212;SDS011;68639;52.380;9.822;2024-02-04T05:27:18;18.97;;;9.87;;
79212;SDS011;68639;52.380;9.822;2024-02-04T05:29:43;23.43;;;11.07;;
79212;SDS011;68639;52.380;9.822;2024-02-04T05:32:10;20.77;;;11.27;;
79212;SDS011;68639;52.380;9.822;2024-02-04T05:34:36;26.87;;;12.83;;
79212;SDS011;68639;52.380;9.822;2024-02-04T05:37:01;24.27;;;12.77;;
79212;SDS011;68639;52.380;9.822;2024-02-04T05:39:26;26.30;;;13.50;;
79212;SDS011;68639;52.380;9.822;2024-02-04T05:41:52;22.40;;;12.73;;
79212;SDS011;68639;52.380;9.822;2024-02-04T05:44:17;17.67;;;11.90;;
79212;SDS011;68639;52.380;9.822;2024-02-04T05:46:42;24.83;;;11.30;;
79212;SDS011;68639;52.380;9.822;2024-02-04T05:49:07;25.90;;;12.80;;
79212;SDS011;68639;52.380;9.822;2024-02-04T05:51:36;27.93;;;13.73;;
79212;SDS011;68639;52.380;9.822;2024-02-04T05:54:02;26.50;;;12.43;;
79212;SDS011;68639;52.380;9.822;2024-02-04T05:56:27;22.43;;;12.50;;
79212;SDS011;68639;52.380;9.822;2024-02-04T05:58:53;24.30;;;12.50;;
79212;SDS011;68639;52.380;9.822;2024-02-04T06:01:18;20.10;;;11.30;;
79212;SDS011;68639;52.380;9.822;2024-02-04T06:03:43;20.40;;;11.40;;
79212;SDS011;68639;52.380;9.822;2024-02-04T06:06:09;20.13;;;9.20;;
79212;SDS011;68639;52.380;9.822;2024-02-04T06:08:34;17.83;;;9.67;;
79212;SDS011;68639;52.380;9.822;2024-02-04T06:10:59;22.70;;;10.07;;
79212;SDS011;68639;52.380;9.822;2024-02-04T06:13:24;19.57;;;8.37;;
79212;SDS011;68639;52.380;9.822;2024-02-04T06:15:49;19.67;;;9.03;;
79212;SDS011;68639;52.380;9.822;2024-02-04T06:18:15;17.77;;;8.13;;
79212;SDS011;68639;52.380;9.822;2024-02-04T06:20:40;19.23;;;8.33;;
79212;SDS011;68639;52.380;9.822;2024-02-04T06:23:05;17.93;;;7.63;;
79212;SDS011;68639;52.380;9.822;2024-02-04T06:25:31;15.63;;;8.10;;
79212;SDS011;68639;52.380;9.822;2024-02-04T06:27:56;15.87;;;6.57;;
79212;SDS011;68639;52.380;9.822;2024-02-04T06:30:21;13.53;;;6.97;;
79212;SDS011;68639;52.380;9.822;2024-02-04T06:32:49;13.17;;;6.57;;
79212;SDS011;68639;52.380;9.822;2024-02-04T06:35:15;13.93;;;6.30;;
79212;SDS011;68639;52.380;9.822;2024-02-04T06:37:40;10.93;;;6.27;;
79212;SDS011;68639;52.380;9.822;2024-02-04T06:40:06;16.40;;;5.93;;
79212;SDS011;68639;52.380;9.822;2024-02-04T06:42:31;13.80;;;6.23;;
79212;SDS011;68639;52.380;9.822;2024-02-04T06:44:56;16.80;;;6.43;;
79212;SDS011;68639;52.380;9.822;2024-02-04T06:47:21;15.87;;;5.70;;
79212;SDS011;68639;52.380;9.822;2024-02-04T06:49:46;11.80;;;5.37;;
79212;SDS011;68639;52.380;9.822;2024-02-04T06:52:12;11.27;;;4.73;;
79212;SDS011;68639;52.380;9.822;2024-02-04T06:54:37;11.60;;;4.23;;
79212;SDS011;68639;52.380;9.822;2024-02-04T06:57:02;9.37;;;3.50;;
79212;SDS011;68639;52.380;9.822;2024-02-04T06:59:27;8.27;;;3.50;;
79212;SDS011;68639;52.380;9.822;2024-02-04T07:01:53;10.93;;;4.03;;
79212;SDS011;68639;52.380;9.822;2024-02-04T07:04:18;11.60;;;3.60;;
79212;SDS011;68639;52.380;9.822;2024-02-04T07:06:43;10.10;;;3.10;;
79212;SDS011;68639;52.380;9.822;2024-02-04T07:09:08;10.73;;;3.47;;
79212;SDS011;68639;52.380;9.822;2024-02-04T07:11:34;12.73;;;3.47;;
79212;SDS011;68639;52.380;9.822;2024-02-04T07:13:59;12.97;;;3.73;;
79212;SDS011;68639;52.380;9.822;2024-02-04T07:16:25;14.20;;;4.30;;
79212;SDS011;68639;52.380;9.822;2024-02-04T07:18:50;12.57;;;4.10;;
79212;SDS011;68639;52.380;9.822;2024-02-04T07:21:15;11.07;;;3.90;;
79212;SDS011;68639;52.380;9.822;2024-02-04T07:23:41;11.73;;;3.67;;
79212;SDS011;68639;52.380;9.822;2024-02-04T07:26:06;8.03;;;3.37;;
79212;SDS011;68639;52.380;9.822;2024-02-04T07:28:31;14.33;;;4.13;;
79212;SDS011;68639;52.380;9.822;2024-02-04T07:30:57;10.27;;;3.77;;
79212;SDS011;68639;52.380;9.822;2024-02-04T07:33:22;10.80;;;4.10;;
79212;SDS011;68639;52.380;9.822;2024-02-04T07:35:47;16.63;;;4.13;;
79212;SDS011;68639;52.380;9.822;2024-02-04T07:38:12;11.03;;;3.80;;
79212;SDS011;68639;52.380;9.822;2024-02-04T07:40:38;12.60;;;4.10;;
79212;SDS011;68639;52.380;9.822;2024-02-04T07:43:03;9.57;;;3.67;;
79212;SDS011;68639;52.380;9.822;2024-02-04T07:45:28;9.60;;;3.50;;
79212;SDS011;68639;52.380;9.822;2024-02-04T07:47:53;8.97;;;3.93;;
79212;SDS011;68639;52.380;9.822;2024-02-04T07:50:18;9.30;;;3.40;;
79212;SDS011;68639;52.380;9.822;2024-02-04T07:52:44;10.43;;;4.00;;
79212;SDS011;68639;52.380;9.822;2024-02-04T07:55:09;11.67;;;3.63;;
79212;SDS011;68639;52.380;9.822;2024-02-04T07:57:35;7.43;;;2.63;;
79212;SDS011;68639;52.380;9.822;2024-02-04T08:00:00;9.33;;;3.10;;
79212;SDS011;68639;52.380;9.822;2024-02-04T08:02:28;11.93;;;2.93;;
79212;SDS011;68639;52.380;9.822;2024-02-04T08:04:53;7.67;;;2.63;;
79212;SDS011;68639;52.380;9.822;2024-02-04T08:07:19;9.87;;;2.87;;
79212;SDS011;68639;52.380;9.822;2024-02-04T08:09:45;10.33;;;2.60;;
79212;SDS011;68639;52.380;9.822;2024-02-04T08:12:10;14.37;;;2.97;;
79212;SDS011;68639;52.380;9.822;2024-02-04T08:14:36;11.97;;;2.70;;
79212;SDS011;68639;52.380;9.822;2024-02-04T08:17:01;8.17;;;2.80;;
79212;SDS011;68639;52.380;9.822;2024-02-04T08:19:26;7.70;;;2.27;;
79212;SDS011;68639;52.380;9.822;2024-02-04T08:21:53;7.20;;;2.40;;
79212;SDS011;68639;52.380;9.822;2024-02-04T08:24:19;10.50;;;2.43;;
79212;SDS011;68639;52.380;9.822;2024-02-04T08:26:44;8.27;;;2.23;;
79212;SDS011;68639;52.380;9.822;2024-02-04T08:29:09;7.97;;;2.07;;
79212;SDS011;68639;52.380;9.822;2024-02-04T08:31:35;7.50;;;2.13;;
79212;SDS011;68639;52.380;9.822;2024-02-04T08:34:01;7.93;;;1.97;;
79212;SDS011;68639;52.380;9.822;2024-02-04T08:36:27;8.40;;;1.97;;
79212;SDS011;68639;52.380;9.822;2024-02-04T08:38:52;9.50;;;2.10;;
79212;SDS011;68639;52.380;9.822;2024-02-04T08:41:17;10.10;;;2.00;;
79212;SDS011;68639;52.380;9.822;2024-02-04T08:43:42;6.43;;;1.97;;
79212;SDS011;68639;52.380;9.822;2024-02-04T08:46:08;8.53;;;1.57;;
79212;SDS011;68639;52.380;9.822;2024-02-04T08:48:33;10.90;;;2.10;;
79212;SDS011;68639;52.380;9.822;2024-02-04T08:50:58;9.97;;;1.83;;
79212;SDS011;68639;52.380;9.822;2024-02-04T08:53:23;10.13;;;1.90;;
79212;SDS011;68639;52.380;9.822;2024-02-04T08:55:49;12.67;;;2.00;;
79212;SDS011;68639;52.380;9.822;2024-02-04T08:58:14;8.00;;;1.90;;
79212;SDS011;68639;52.380;9.822;2024-02-04T09:00:39;12.70;;;2.70;;
79212;SDS011;68639;52.380;9.822;2024-02-04T09:03:04;11.40;;;2.00;;
79212;SDS011;68639;52.380;9.822;2024-02-04T09:05:29;13.00;;;2.13;;
79212;SDS011;68639;52.380;9.822;2024-02-04T09:07:54;8.17;;;1.80;;
79212;SDS011;68639;52.380;9.822;2024-02-04T09:10:20;12.17;;;1.97;;
79212;SDS011;68639;52.380;9.822;2024-02-04T09:12:46;17.30;;;2.20;;
79212;SDS011;68639;52.380;9.822;2024-02-04T09:15:11;13.60;;;1.97;;
79212;SDS011;68639;52.380;9.822;2024-02-04T09:17:37;11.53;;;1.87;;
79212;SDS011;68639;52.380;9.822;2024-02-04T09:20:02;9.87;;;1.70;;
79212;SDS011;68639;52.380;9.822;2024-02-04T09:22:27;8.97;;;1.80;;
79212;SDS011;68639;52.380;9.822;2024-02-04T09:24:52;9.00;;;1.87;;
79212;SDS011;68639;52.380;9.822;2024-02-04T09:27:18;9.60;;;2.10;;
79212;SDS011;68639;52.380;9.822;2024-02-04T09:29:43;10.40;;;2.00;;
79212;SDS011;68639;52.380;9.822;2024-02-04T09:32:08;12.23;;;2.13;;
79212;SDS011;68639;52.380;9.822;2024-02-04T09:34:33;12.80;;;2.30;;
79212;SDS011;68639;52.380;9.822;2024-02-04T09:36:59;12.90;;;2.23;;
79212;SDS011;68639;52.380;9.822;2024-02-04T09:39:24;10.93;;;2.60;;
79212;SDS011;68639;52.380;9.822;2024-02-04T09:41:49;11.00;;;1.83;;
79212;SDS011;68639;52.380;9.822;2024-02-04T09:44:14;12.90;;;2.30;;
79212;SDS011;68639;52.380;9.822;2024-02-04T09:46:40;13.37;;;2.20;;
79212;SDS011;68639;52.380;9.822;2024-02-04T09:49:05;10.97;;;1.97;;
79212;SDS011;68639;52.380;9.822;2024-02-04T09:51:30;16.07;;;2.40;;
79212;SDS011;68639;52.380;9.822;2024-02-04T09:53:56;15.00;;;2.60;;
79212;SDS011;68639;52.380;9.822;2024-02-04T09:56:24;15.57;;;2.50;;
79212;SDS011;68639;52.380;9.822;2024-02-04T09:58:50;14.67;;;2.73;;
79212;SDS011;68639;52.380;9.822;2024-02-04T10:01:17;13.97;;;2.87;;
79212;SDS011;68639;52.380;9.822;2024-02-04T10:03:43;13.57;;;2.43;;
79212;SDS011;68639;52.380;9.822;2024-02-04T10:06:08;16.93;;;2.60;;
79212;SDS011;68639;52.380;9.822;2024-02-04T10:08:37;17.57;;;2.87;;
79212;SDS011;68639;52.380;9.822;2024-02-04T10:11:02;16.17;;;3.27;;
79212;SDS011;68639;52.380;9.822;2024-02-04T10:13:28;17.50;;;2.67;;
79212;SDS011;68639;52.380;9.822;2024-02-04T10:15:53;17.00;;;2.50;;
79212;SDS011;68639;52.380;9.822;2024-02-04T10:18:19;18.17;;;2.43;;
79212;SDS011;68639;52.380;9.822;2024-02-04T10:20:44;21.67;;;3.93;;
79212;SDS011;68639;52.380;9.822;2024-02-04T10:23:09;22.43;;;6.03;;
79212;SDS011;68639;52.380;9.822;2024-02-04T10:25:34;17.43;;;3.20;;
79212;SDS011;68639;52.380;9.822;2024-02-04T10:28:00;19.23;;;3.13;;
79212;SDS011;68639;52.380;9.822;2024-02-04T10:30:25;18.07;;;2.57;;
79212;SDS011;68639;52.380;9.822;2024-02-04T10:32:51;15.10;;;2.50;;
79212;SDS011;68639;52.380;9.822;2024-02-04T10:35:16;17.83;;;2.67;;
79212;SDS011;68639;52.380;9.822;2024-02-04T10:37:44;17.77;;;2.80;;
79212;SDS011;68639;52.380;9.822;2024-02-04T10:40:09;15.73;;;2.77;;
79212;SDS011;68639;52.380;9.822;2024-02-04T10:42:34;16.70;;;2.70;;
79212;SDS011;68639;52.380;9.822;2024-02-04T10:45:00;12.20;;;2.60;;
79212;SDS011;68639;52.380;9.822;2024-02-04T10:47:30;18.47;;;2.57;;
79212;SDS011;68639;52.380;9.822;2024-02-04T10:49:58;15.93;;;2.50;;
79212;SDS011;68639;52.380;9.822;2024-02-04T10:52:23;17.83;;;2.80;;
79212;SDS011;68639;52.380;9.822;2024-02-04T10:54:51;17.13;;;3.17;;
79212;SDS011;68639;52.380;9.822;2024-02-04T10:57:19;23.77;;;2.47;;
79212;SDS011;68639;52.380;9.822;2024-02-04T10:59:45;12.23;;;2.40;;
79212;SDS011;68639;52.380;9.822;2024-02-04T11:02:11;17.90;;;2.80;;
79212;SDS011;68639;52.380;9.822;2024-02-04T11:04:37;13.60;;;2.50;;
79212;SDS011;68639;52.380;9.822;2024-02-04T11:07:03;11.50;;;2.60;;
79212;SDS011;68639;52.380;9.822;2024-02-04T11:09:28;13.77;;;2.83;;
79212;SDS011;68639;52.380;9.822;2024-02-04T11:11:54;17.87;;;2.80;;
79212;SDS011;68639;52.380;9.822;2024-02-04T11:14:21;12.40;;;2.93;;
79212;SDS011;68639;52.380;9.822;2024-02-04T11:17:00;12.37;;;2.33;;
79212;SDS011;68639;52.380;9.822;2024-02-04T11:19:47;14.27;;;2.47;;
79212;SDS011;68639;52.380;9.822;2024-02-04T11:27:47;12.77;;;2.63;;
79212;SDS011;68639;52.380;9.822;2024-02-04T11:30:13;16.30;;;3.00;;
79212;SDS011;68639;52.380;9.822;2024-02-04T11:32:40;10.83;;;2.70;;
79212;SDS011;68639;52.380;9.822;2024-02-04T11:35:05;9.77;;;2.63;;
79212;SDS011;68639;52.380;9.822;2024-02-04T11:37:32;11.10;;;2.37;;
79212;SDS011;68639;52.380;9.822;2024-02-04T11:39:58;12.53;;;2.70;;
79212;SDS011;68639;52.380;9.822;2024-02-04T11:42:23;12.67;;;2.60;;
79212;SDS011;68639;52.380;9.822;2024-02-04T11:44:49;10.90;;;2.60;;
79212;SDS011;68639;52.380;9.822;2024-02-04T11:47:24;12.80;;;2.50;;
79212;SDS011;68639;52.380;9.822;2024-02-04T11:49:57;8.93;;;2.70;;
79212;SDS011;68639;52.380;9.822;2024-02-04T11:52:22;10.03;;;2.37;;
79212;SDS011;68639;52.380;9.822;2024-02-04T11:54:47;14.70;;;4.00;;
79212;SDS011;68639;52.380;9.822;2024-02-04T11:57:13;10.53;;;2.80;;
79212;SDS011;68639;52.380;9.822;2024-02-04T11:59:39;8.90;;;2.07;;
79212;SDS011;68639;52.380;9.822;2024-02-04T12:02:05;12.23;;;2.17;;
79212;SDS011;68639;52.380;9.822;2024-02-04T12:04:31;11.40;;;2.42;;
79212;SDS011;68639;52.380;9.822;2024-02-04T12:06:56;12.87;;;2.33;;
79212;SDS011;68639;52.380;9.822;2024-02-04T12:09:22;13.27;;;2.17;;
79212;SDS011;68639;52.380;9.822;2024-02-04T12:11:47;11.17;;;2.17;;
79212;SDS011;68639;52.380;9.822;2024-02-04T12:14:12;10.33;;;2.03;;
79212;SDS011;68639;52.380;9.822;2024-02-04T12:16:38;11.00;;;2.03;;
79212;SDS011;68639;52.380;9.822;2024-02-04T12:19:03;11.53;;;2.30;;
79212;SDS011;68639;52.380;9.822;2024-02-04T12:21:29;11.57;;;2.30;;
79212;SDS011;68639;52.380;9.822;2024-02-04T12:23:54;10.90;;;1.90;;
79212;SDS011;68639;52.380;9.822;2024-02-04T12:26:20;8.60;;;2.00;;
79212;SDS011;68639;52.380;9.822;2024-02-04T12:28:45;9.03;;;2.10;;
79212;SDS011;68639;52.380;9.822;2024-02-04T12:31:17;13.23;;;2.20;;
79212;SDS011;68639;52.380;9.822;2024-02-04T12:33:43;10.57;;;2.13;;
79212;SDS011;68639;52.380;9.822;2024-02-04T12:36:14;12.63;;;2.27;;
79212;SDS011;68639;52.380;9.822;2024-02-04T12:38:40;9.87;;;2.00;;
79212;SDS011;68639;52.380;9.822;2024-02-04T12:41:05;8.33;;;1.83;;
79212;SDS011;68639;52.380;9.822;2024-02-04T12:43:30;10.17;;;2.20;;
79212;SDS011;68639;52.380;9.822;2024-02-04T12:45:56;11.73;;;2.20;;
79212;SDS011;68639;52.380;9.822;2024-02-04T12:48:21;11.03;;;2.20;;
79212;SDS011;68639;52.380;9.822;2024-02-04T12:50:48;9.53;;;2.13;;
79212;SDS011;68639;52.380;9.822;2024-02-04T12:53:13;9.07;;;2.10;;
79212;SDS011;68639;52.380;9.822;2024-02-04T12:55:40;10.17;;;1.60;;
79212;SDS011;68639;52.380;9.822;2024-02-04T12:58:11;8.50;;;2.43;;
79212;SDS011;68639;52.380;9.822;2024-02-04T13:00:37;9.53;;;1.53;;
79212;SDS011;68639;52.380;9.822;2024-02-04T13:03:03;9.57;;;1.87;;
79212;SDS011;68639;52.380;9.822;2024-02-04T13:05:28;10.23;;;2.70;;
79212;SDS011;68639;52.380;9.822;2024-02-04T13:07:56;7.43;;;1.90;;
79212;SDS011;68639;52.380;9.822;2024-02-04T13:10:25;9.63;;;1.73;;
79212;SDS011;68639;52.380;9.822;2024-02-04T13:12:57;7.60;;;1.80;;
79212;SDS011;68639;52.380;9.822;2024-02-04T13:15:23;7.07;;;1.80;;
79212;SDS011;68639;52.380;9.822;2024-02-04T13:17:48;7.43;;;1.60;;
79212;SDS011;68639;52.380;9.822;2024-02-04T13:20:13;7.83;;;2.13;;
79212;SDS011;68639;52.380;9.822;2024-02-04T13:22:38;10.67;;;2.40;;
79212;SDS011;68639;52.380;9.822;2024-02-04T13:25:03;6.33;;;1.97;;
79212;SDS011;68639;52.380;9.822;2024-02-04T13:27:29;6.17;;;1.90;;
79212;SDS011;68639;52.380;9.822;2024-02-04T13:29:54;7.60;;;2.00;;
79212;SDS011;68639;52.380;9.822;2024-02-04T13:32:19;8.90;;;1.97;;
79212;SDS011;68639;52.380;9.822;2024-02-04T13:34:44;6.43;;;1.70;;
79212;SDS011;68639;52.380;9.822;2024-02-04T13:37:10;11.47;;;2.27;;
79212;SDS011;68639;52.380;9.822;2024-02-04T13:39:35;7.13;;;1.70;;
79212;SDS011;68639;52.380;9.822;2024-02-04T13:42:00;13.13;;;2.10;;
79212;SDS011;68639;52.380;9.822;2024-02-04T13:44:25;5.40;;;1.70;;
79212;SDS011;68639;52.380;9.822;2024-02-04T13:46:51;10.87;;;1.93;;
79212;SDS011;68639;52.380;9.822;2024-02-04T13:49:16;9.57;;;1.73;;
79212;SDS011;68639;52.380;9.822;2024-02-04T13:51:42;6.10;;;1.40;;
79212;SDS011;68639;52.380;9.822;2024-02-04T13:54:07;5.53;;;1.70;;
79212;SDS011;68639;52.380;9.822;2024-02-04T13:56:32;6.93;;;1.67;;
79212;SDS011;68639;52.380;9.822;2024-02-04T13:58:58;8.23;;;1.77;;
79212;SDS011;68639;52.380;9.822;2024-02-04T14:01:23;7.10;;;1.60;;
79212;SDS011;68639;52.380;9.822;2024-02-04T14:03:48;8.40;;;1.80;;
79212;SDS011;68639;52.380;9.822;2024-02-04T14:06:15;8.47;;;1.80;;
79212;SDS011;68639;52.380;9.822;2024-02-04T14:08:40;7.87;;;2.10;;
79212;SDS011;68639;52.380;9.822;2024-02-04T14:11:05;6.23;;;2.07;;
79212;SDS011;68639;52.380;9.822;2024-02-04T14:13:30;5.23;;;1.97;;
79212;SDS011;68639;52.380;9.822;2024-02-04T14:15:57;10.27;;;2.20;;
79212;SDS011;68639;52.380;9.822;2024-02-04T14:18:23;5.67;;;2.00;;
79212;SDS011;68639;52.380;9.822;2024-02-04T14:20:48;6.90;;;2.03;;
79212;SDS011;68639;52.380;9.822;2024-02-04T14:23:13;6.47;;;2.10;;
79212;SDS011;68639;52.380;9.822;2024-02-04T14:25:38;4.70;;;1.90;;
79212;SDS011;68639;52.380;9.822;2024-02-04T14:28:03;7.40;;;1.80;;
79212;SDS011;68639;52.380;9.822;2024-02-04T14:30:29;8.07;;;2.50;;